sensor_id;sensor_type;location;lat;lon;timestamp;P1;durP1;ratioP1;P2;durP2;ratioP2
41309;SDS011;27057;51.438;-0.010;2023-02-17T00:01:16;3.47;;;2.45;;
41309;SDS011;27057;51.438;-0.010;2023-02-17T00:03:48;8.27;;;3.95;;
41309;SDS011;27057;51.438;-0.010;2023-02-17T00:06:17;8.60;;;4.03;;
41309;SDS011;27057;51.438;-0.010;2023-02-17T00:08:46;5.05;;;1.77;;
41309;SDS011;27057;51.438;-0.010;2023-02-17T00:11:15;6.18;;;3.30;;
41309;SDS011;27057;51.438;-0.010;2023-02-17T00:13:44;8.35;;;3.72;;
41309;SDS011;27057;51.438;-0.010;2023-02-17T00:16:15;8.57;;;4.15;;
41309;SDS011;27057;51.438;-0.010;2023-02-17T00:18:46;34.85;;;3.00;;
41309;SDS011;27057;51.438;-0.010;2023-02-17T00:21:16;4.97;;;2.55;;
41309;SDS011;27057;51.438;-0.010;2023-02-17T00:23:45;5.70;;;2.83;;
41309;SDS011;27057;51.438;-0.010;2023-02-17T00:26:14;6.20;;;3.00;;
41309;SDS011;27057;51.438;-0.010;2023-02-17T00:28:43;7.13;;;3.40;;
41309;SDS011;27057;51.438;-0.010;2023-02-17T00:31:15;4.65;;;2.40;;
41309;SDS011;27057;51.438;-0.010;2023-02-17T00:33:45;4.03;;;3.30;;
41309;SDS011;27057;51.438;-0.010;2023-02-17T00:36:18;6.15;;;3.55;;
41309;SDS011;27057;51.438;-0.010;2023-02-17T00:38:46;5.80;;;3.13;;
41309;SDS011;27057;51.438;-0.010;2023-02-17T00:41:15;7.97;;;3.17;;
41309;SDS011;27057;51.438;-0.010;2023-02-17T00:43:43;5.90;;;3.20;;
41309;SDS011;27057;51.438;-0.010;2023-02-17T00:46:11;9.13;;;2.90;;
41309;SDS011;27057;51.438;-0.010;2023-02-17T00:48:39;5.82;;;2.72;;
41309;SDS011;27057;51.438;-0.010;2023-02-17T00:51:07;5.15;;;2.65;;
41309;SDS011;27057;51.438;-0.010;2023-02-17T00:53:35;7.35;;;3.03;;
41309;SDS011;27057;51.438;-0.010;2023-02-17T00:56:05;6.38;;;3.47;;
41309;SDS011;27057;51.438;-0.010;2023-02-17T00:58:34;4.18;;;2.00;;
41309;SDS011;27057;51.438;-0.010;2023-02-17T01:01:02;5.20;;;2.47;;
41309;SDS011;27057;51.438;-0.010;2023-02-17T01:03:30;6.30;;;2.40;;
41309;SDS011;27057;51.438;-0.010;2023-02-17T01:05:58;3.10;;;1.50;;
41309;SDS011;27057;51.438;-0.010;2023-02-17T01:08:25;5.63;;;2.90;;
41309;SDS011;27057;51.438;-0.010;2023-02-17T01:10:53;4.43;;;2.03;;
41309;SDS011;27057;51.438;-0.010;2023-02-17T01:13:30;1.98;;;1.45;;
41309;SDS011;27057;51.438;-0.010;2023-02-17T01:15:58;9.32;;;1.95;;
41309;SDS011;27057;51.438;-0.010;2023-02-17T01:18:26;5.50;;;2.08;;
41309;SDS011;27057;51.438;-0.010;2023-02-17T01:20:53;5.47;;;1.25;;
41309;SDS011;27057;51.438;-0.010;2023-02-17T01:23:21;9.75;;;1.73;;
41309;SDS011;27057;51.438;-0.010;2023-02-17T01:25:48;4.05;;;1.80;;
41309;SDS011;27057;51.438;-0.010;2023-02-17T01:28:18;5.03;;;1.98;;
41309;SDS011;27057;51.438;-0.010;2023-02-17T01:30:47;5.30;;;2.40;;
41309;SDS011;27057;51.438;-0.010;2023-02-17T01:33:15;5.60;;;2.92;;
41309;SDS011;27057;51.438;-0.010;2023-02-17T01:35:44;13.30;;;2.30;;
41309;SDS011;27057;51.438;-0.010;2023-02-17T01:38:12;3.42;;;1.95;;
41309;SDS011;27057;51.438;-0.010;2023-02-17T01:40:48;8.20;;;2.58;;
41309;SDS011;27057;51.438;-0.010;2023-02-17T01:43:19;3.88;;;2.00;;
41309;SDS011;27057;51.438;-0.010;2023-02-17T01:45:51;2.88;;;2.45;;
41309;SDS011;27057;51.438;-0.010;2023-02-17T01:48:21;3.17;;;1.88;;
41309;SDS011;27057;51.438;-0.010;2023-02-17T01:51:05;3.25;;;1.50;;
41309;SDS011;27057;51.438;-0.010;2023-02-17T01:53:51;3.67;;;2.35;;
41309;SDS011;27057;51.438;-0.010;2023-02-17T01:56:25;4.80;;;1.77;;
41309;SDS011;27057;51.438;-0.010;2023-02-17T01:58:58;4.68;;;2.40;;
41309;SDS011;27057;51.438;-0.010;2023-02-17T02:01:34;6.70;;;2.13;;
41309;SDS011;27057;51.438;-0.010;2023-02-17T02:04:10;9.20;;;3.20;;
41309;SDS011;27057;51.438;-0.010;2023-02-17T02:06:40;4.57;;;2.72;;
41309;SDS011;27057;51.438;-0.010;2023-02-17T02:09:54;6.95;;;3.00;;
41309;SDS011;27057;51.438;-0.010;2023-02-17T02:12:14;3.53;;;2.30;;
41309;SDS011;27057;51.438;-0.010;2023-02-17T02:14:49;9.85;;;2.78;;
41309;SDS011;27057;51.438;-0.010;2023-02-17T02:17:32;7.55;;;3.50;;
41309;SDS011;27057;51.438;-0.010;2023-02-17T02:34:21;4.28;;;2.28;;
41309;SDS011;27057;51.438;-0.010;2023-02-17T02:37:02;5.13;;;2.60;;
41309;SDS011;27057;51.438;-0.010;2023-02-17T02:39:47;8.83;;;3.90;;
41309;SDS011;27057;51.438;-0.010;2023-02-17T02:42:24;11.57;;;2.90;;
41309;SDS011;27057;51.438;-0.010;2023-02-17T02:45:10;8.25;;;3.20;;
41309;SDS011;27057;51.438;-0.010;2023-02-17T02:48:01;11.85;;;2.83;;
41309;SDS011;27057;51.438;-0.010;2023-02-17T03:02:48;4.90;;;2.13;;
41309;SDS011;27057;51.438;-0.010;2023-02-17T03:10:35;2.70;;;1.83;;
41309;SDS011;27057;51.438;-0.010;2023-02-17T03:13:09;4.18;;;3.05;;
41309;SDS011;27057;51.438;-0.010;2023-02-17T03:15:37;4.30;;;1.98;;
41309;SDS011;27057;51.438;-0.010;2023-02-17T03:18:05;8.27;;;2.47;;
41309;SDS011;27057;51.438;-0.010;2023-02-17T03:20:37;3.38;;;2.38;;
41309;SDS011;27057;51.438;-0.010;2023-02-17T03:23:28;11.40;;;3.30;;
41309;SDS011;27057;51.438;-0.010;2023-02-17T03:25:56;4.43;;;2.05;;
41309;SDS011;27057;51.438;-0.010;2023-02-17T03:28:24;7.10;;;2.17;;
41309;SDS011;27057;51.438;-0.010;2023-02-17T03:31:11;4.20;;;2.07;;
41309;SDS011;27057;51.438;-0.010;2023-02-17T03:33:39;6.43;;;2.08;;
41309;SDS011;27057;51.438;-0.010;2023-02-17T03:36:07;14.25;;;2.78;;
41309;SDS011;27057;51.438;-0.010;2023-02-17T03:38:34;5.38;;;1.70;;
41309;SDS011;27057;51.438;-0.010;2023-02-17T03:41:02;4.50;;;2.08;;
41309;SDS011;27057;51.438;-0.010;2023-02-17T03:43:30;7.88;;;2.40;;
41309;SDS011;27057;51.438;-0.010;2023-02-17T03:46:12;3.72;;;2.30;;
41309;SDS011;27057;51.438;-0.010;2023-02-17T03:48:53;5.75;;;2.75;;
41309;SDS011;27057;51.438;-0.010;2023-02-17T03:51:21;8.23;;;3.42;;
41309;SDS011;27057;51.438;-0.010;2023-02-17T03:53:50;7.65;;;2.80;;
41309;SDS011;27057;51.438;-0.010;2023-02-17T03:56:19;10.27;;;3.10;;
41309;SDS011;27057;51.438;-0.010;2023-02-17T03:58:47;6.00;;;2.67;;
41309;SDS011;27057;51.438;-0.010;2023-02-17T04:01:15;6.53;;;3.17;;
41309;SDS011;27057;51.438;-0.010;2023-02-17T04:03:42;4.78;;;2.30;;
41309;SDS011;27057;51.438;-0.010;2023-02-17T04:06:10;7.80;;;2.38;;
41309;SDS011;27057;51.438;-0.010;2023-02-17T04:08:38;3.45;;;1.88;;
41309;SDS011;27057;51.438;-0.010;2023-02-17T04:11:06;10.40;;;2.75;;
41309;SDS011;27057;51.438;-0.010;2023-02-17T04:13:35;7.95;;;2.20;;
41309;SDS011;27057;51.438;-0.010;2023-02-17T04:16:03;5.63;;;2.35;;
41309;SDS011;27057;51.438;-0.010;2023-02-17T04:18:33;7.80;;;2.88;;
41309;SDS011;27057;51.438;-0.010;2023-02-17T04:21:01;5.63;;;1.63;;
41309;SDS011;27057;51.438;-0.010;2023-02-17T04:23:29;4.20;;;1.55;;
41309;SDS011;27057;51.438;-0.010;2023-02-17T04:25:56;3.90;;;2.03;;
41309;SDS011;27057;51.438;-0.010;2023-02-17T04:28:24;4.13;;;1.58;;
41309;SDS011;27057;51.438;-0.010;2023-02-17T04:30:53;2.65;;;1.45;;
41309;SDS011;27057;51.438;-0.010;2023-02-17T04:33:20;2.03;;;1.58;;
41309;SDS011;27057;51.438;-0.010;2023-02-17T04:35:47;3.22;;;1.92;;
41309;SDS011;27057;51.438;-0.010;2023-02-17T04:38:15;3.55;;;1.90;;
41309;SDS011;27057;51.438;-0.010;2023-02-17T04:40:42;3.67;;;1.50;;
41309;SDS011;27057;51.438;-0.010;2023-02-17T04:43:10;4.93;;;1.80;;
41309;SDS011;27057;51.438;-0.010;2023-02-17T04:45:37;3.53;;;1.73;;
41309;SDS011;27057;51.438;-0.010;2023-02-17T04:48:04;5.15;;;1.67;;
41309;SDS011;27057;51.438;-0.010;2023-02-17T04:50:32;3.38;;;1.42;;
41309;SDS011;27057;51.438;-0.010;2023-02-17T04:52:59;1.70;;;1.15;;
41309;SDS011;27057;51.438;-0.010;2023-02-17T04:55:27;2.60;;;1.20;;
41309;SDS011;27057;51.438;-0.010;2023-02-17T04:57:55;1.83;;;0.80;;
41309;SDS011;27057;51.438;-0.010;2023-02-17T05:00:23;3.78;;;1.15;;
41309;SDS011;27057;51.438;-0.010;2023-02-17T05:02:50;0.68;;;0.68;;
41309;SDS011;27057;51.438;-0.010;2023-02-17T05:05:18;2.38;;;1.70;;
41309;SDS011;27057;51.438;-0.010;2023-02-17T05:07:46;1.67;;;0.57;;
41309;SDS011;27057;51.438;-0.010;2023-02-17T05:10:15;1.55;;;0.80;;
41309;SDS011;27057;51.438;-0.010;2023-02-17T05:12:43;1.92;;;0.75;;
41309;SDS011;27057;51.438;-0.010;2023-02-17T05:15:11;4.32;;;0.77;;
41309;SDS011;27057;51.438;-0.010;2023-02-17T05:17:39;1.70;;;0.70;;
41309;SDS011;27057;51.438;-0.010;2023-02-17T05:20:07;5.35;;;1.13;;
41309;SDS011;27057;51.438;-0.010;2023-02-17T05:22:35;4.55;;;0.60;;
41309;SDS011;27057;51.438;-0.010;2023-02-17T05:25:02;4.10;;;0.80;;
41309;SDS011;27057;51.438;-0.010;2023-02-17T05:27:31;1.83;;;0.93;;
41309;SDS011;27057;51.438;-0.010;2023-02-17T05:29:59;0.60;;;0.40;;
41309;SDS011;27057;51.438;-0.010;2023-02-17T05:32:26;1.77;;;0.95;;
41309;SDS011;27057;51.438;-0.010;2023-02-17T05:34:53;5.15;;;0.70;;
41309;SDS011;27057;51.438;-0.010;2023-02-17T05:37:21;1.55;;;0.40;;
41309;SDS011;27057;51.438;-0.010;2023-02-17T05:39:48;3.42;;;0.77;;
41309;SDS011;27057;51.438;-0.010;2023-02-17T05:42:15;4.00;;;0.75;;
41309;SDS011;27057;51.438;-0.010;2023-02-17T05:44:43;2.10;;;0.70;;
41309;SDS011;27057;51.438;-0.010;2023-02-17T05:47:10;2.72;;;0.68;;
41309;SDS011;27057;51.438;-0.010;2023-02-17T05:49:37;7.22;;;1.02;;
41309;SDS011;27057;51.438;-0.010;2023-02-17T05:52:05;4.85;;;0.85;;
41309;SDS011;27057;51.438;-0.010;2023-02-17T05:54:32;1.17;;;0.50;;
41309;SDS011;27057;51.438;-0.010;2023-02-17T05:56:59;1.88;;;0.75;;
41309;SDS011;27057;51.438;-0.010;2023-02-17T05:59:27;1.75;;;1.00;;
41309;SDS011;27057;51.438;-0.010;2023-02-17T06:01:54;2.70;;;0.88;;
41309;SDS011;27057;51.438;-0.010;2023-02-17T06:04:22;3.65;;;0.73;;
41309;SDS011;27057;51.438;-0.010;2023-02-17T06:06:49;3.50;;;0.95;;
41309;SDS011;27057;51.438;-0.010;2023-02-17T06:09:17;1.45;;;0.80;;
41309;SDS011;27057;51.438;-0.010;2023-02-17T06:11:44;2.05;;;0.55;;
41309;SDS011;27057;51.438;-0.010;2023-02-17T06:14:12;0.80;;;0.55;;
41309;SDS011;27057;51.438;-0.010;2023-02-17T06:16:39;0.98;;;0.60;;
41309;SDS011;27057;51.438;-0.010;2023-02-17T06:19:06;3.35;;;0.70;;
41309;SDS011;27057;51.438;-0.010;2023-02-17T06:21:34;0.60;;;0.45;;
41309;SDS011;27057;51.438;-0.010;2023-02-17T06:24:02;8.52;;;0.60;;
41309;SDS011;27057;51.438;-0.010;2023-02-17T06:26:29;4.53;;;0.80;;
41309;SDS011;27057;51.438;-0.010;2023-02-17T06:28:57;2.35;;;0.50;;
41309;SDS011;27057;51.438;-0.010;2023-02-17T06:31:24;0.82;;;0.47;;
41309;SDS011;27057;51.438;-0.010;2023-02-17T06:33:52;2.42;;;0.43;;
41309;SDS011;27057;51.438;-0.010;2023-02-17T06:36:19;1.73;;;0.80;;
41309;SDS011;27057;51.438;-0.010;2023-02-17T06:38:47;0.98;;;0.57;;
41309;SDS011;27057;51.438;-0.010;2023-02-17T06:41:14;2.17;;;0.50;;
41309;SDS011;27057;51.438;-0.010;2023-02-17T06:43:41;0.40;;;0.40;;
41309;SDS011;27057;51.438;-0.010;2023-02-17T06:46:10;1.42;;;0.60;;
41309;SDS011;27057;51.438;-0.010;2023-02-17T06:48:37;1.65;;;0.47;;
41309;SDS011;27057;51.438;-0.010;2023-02-17T06:51:05;1.90;;;0.68;;
41309;SDS011;27057;51.438;-0.010;2023-02-17T06:53:32;3.38;;;0.68;;
41309;SDS011;27057;51.438;-0.010;2023-02-17T06:55:59;0.80;;;0.40;;
41309;SDS011;27057;51.438;-0.010;2023-02-17T06:58:27;1.60;;;0.55;;
41309;SDS011;27057;51.438;-0.010;2023-02-17T07:00:54;0.55;;;0.40;;
41309;SDS011;27057;51.438;-0.010;2023-02-17T07:03:22;1.10;;;0.38;;
41309;SDS011;27057;51.438;-0.010;2023-02-17T07:05:49;0.75;;;0.55;;
41309;SDS011;27057;51.438;-0.010;2023-02-17T07:08:17;1.00;;;0.35;;
41309;SDS011;27057;51.438;-0.010;2023-02-17T07:10:44;0.50;;;0.50;;
41309;SDS011;27057;51.438;-0.010;2023-02-17T07:13:11;0.40;;;0.40;;
41309;SDS011;27057;51.438;-0.010;2023-02-17T07:15:39;0.60;;;0.50;;
41309;SDS011;27057;51.438;-0.010;2023-02-17T07:18:06;0.40;;;0.40;;
41309;SDS011;27057;51.438;-0.010;2023-02-17T07:20:34;0.70;;;0.38;;
41309;SDS011;27057;51.438;-0.010;2023-02-17T07:23:04;0.52;;;0.47;;
41309;SDS011;27057;51.438;-0.010;2023-02-17T07:25:32;1.00;;;0.40;;
41309;SDS011;27057;51.438;-0.010;2023-02-17T07:28:00;1.55;;;0.70;;
41309;SDS011;27057;51.438;-0.010;2023-02-17T07:30:27;4.88;;;1.27;;
41309;SDS011;27057;51.438;-0.010;2023-02-17T07:32:55;2.67;;;0.60;;
41309;SDS011;27057;51.438;-0.010;2023-02-17T07:35:22;1.88;;;0.50;;
41309;SDS011;27057;51.438;-0.010;2023-02-17T07:37:50;0.95;;;0.43;;
41309;SDS011;27057;51.438;-0.010;2023-02-17T07:40:17;0.47;;;0.47;;
41309;SDS011;27057;51.438;-0.010;2023-02-17T07:42:45;1.38;;;0.80;;
41309;SDS011;27057;51.438;-0.010;2023-02-17T07:45:12;1.35;;;0.70;;
41309;SDS011;27057;51.438;-0.010;2023-02-17T07:47:40;1.27;;;0.50;;
41309;SDS011;27057;51.438;-0.010;2023-02-17T07:50:07;0.88;;;0.80;;
41309;SDS011;27057;51.438;-0.010;2023-02-17T07:52:36;0.80;;;0.77;;
41309;SDS011;27057;51.438;-0.010;2023-02-17T07:55:03;3.17;;;0.50;;
41309;SDS011;27057;51.438;-0.010;2023-02-17T07:57:31;3.20;;;0.80;;
41309;SDS011;27057;51.438;-0.010;2023-02-17T07:59:59;1.88;;;0.70;;
41309;SDS011;27057;51.438;-0.010;2023-02-17T08:02:26;1.58;;;0.73;;
41309;SDS011;27057;51.438;-0.010;2023-02-17T08:04:54;1.65;;;0.60;;
41309;SDS011;27057;51.438;-0.010;2023-02-17T08:07:21;4.57;;;0.73;;
41309;SDS011;27057;51.438;-0.010;2023-02-17T08:09:49;4.40;;;0.60;;
41309;SDS011;27057;51.438;-0.010;2023-02-17T08:12:37;1.17;;;0.70;;
41309;SDS011;27057;51.438;-0.010;2023-02-17T08:15:36;2.70;;;0.63;;
41309;SDS011;27057;51.438;-0.010;2023-02-17T08:18:04;3.05;;;0.98;;
41309;SDS011;27057;51.438;-0.010;2023-02-17T08:20:32;0.40;;;0.40;;
41309;SDS011;27057;51.438;-0.010;2023-02-17T08:23:01;0.40;;;0.40;;
41309;SDS011;27057;51.438;-0.010;2023-02-17T08:25:33;1.20;;;0.65;;
41309;SDS011;27057;51.438;-0.010;2023-02-17T08:28:02;0.38;;;0.38;;
41309;SDS011;27057;51.438;-0.010;2023-02-17T08:30:34;0.57;;;0.50;;
41309;SDS011;27057;51.438;-0.010;2023-02-17T08:33:03;0.98;;;0.50;;
41309;SDS011;27057;51.438;-0.010;2023-02-17T08:35:31;1.00;;;0.85;;
41309;SDS011;27057;51.438;-0.010;2023-02-17T08:37:58;1.55;;;0.50;;
41309;SDS011;27057;51.438;-0.010;2023-02-17T08:40:26;0.88;;;0.43;;
41309;SDS011;27057;51.438;-0.010;2023-02-17T08:42:54;1.23;;;0.70;;
41309;SDS011;27057;51.438;-0.010;2023-02-17T08:45:22;1.10;;;0.82;;
41309;SDS011;27057;51.438;-0.010;2023-02-17T08:47:49;1.90;;;0.68;;
41309;SDS011;27057;51.438;-0.010;2023-02-17T08:50:17;0.52;;;0.50;;
41309;SDS011;27057;51.438;-0.010;2023-02-17T08:52:46;0.57;;;0.43;;
41309;SDS011;27057;51.438;-0.010;2023-02-17T08:55:13;0.60;;;0.50;;
41309;SDS011;27057;51.438;-0.010;2023-02-17T08:57:46;0.60;;;0.40;;
41309;SDS011;27057;51.438;-0.010;2023-02-17T09:00:14;0.88;;;0.40;;
41309;SDS011;27057;51.438;-0.010;2023-02-17T09:02:42;0.60;;;0.30;;
41309;SDS011;27057;51.438;-0.010;2023-02-17T09:05:11;4.05;;;0.60;;
41309;SDS011;27057;51.438;-0.010;2023-02-17T09:07:39;0.43;;;0.43;;
41309;SDS011;27057;51.438;-0.010;2023-02-17T09:10:10;1.73;;;0.40;;
41309;SDS011;27057;51.438;-0.010;2023-02-17T09:12:41;0.43;;;0.40;;
41309;SDS011;27057;51.438;-0.010;2023-02-17T09:15:09;6.03;;;0.77;;
41309;SDS011;27057;51.438;-0.010;2023-02-17T09:17:37;1.02;;;0.40;;
41309;SDS011;27057;51.438;-0.010;2023-02-17T09:20:06;4.93;;;0.50;;
41309;SDS011;27057;51.438;-0.010;2023-02-17T09:22:50;0.90;;;0.40;;
41309;SDS011;27057;51.438;-0.010;2023-02-17T09:25:18;0.50;;;0.50;;
41309;SDS011;27057;51.438;-0.010;2023-02-17T09:27:46;1.52;;;0.70;;
41309;SDS011;27057;51.438;-0.010;2023-02-17T09:30:13;2.95;;;0.60;;
41309;SDS011;27057;51.438;-0.010;2023-02-17T09:32:41;0.20;;;0.20;;
41309;SDS011;27057;51.438;-0.010;2023-02-17T09:35:10;1.25;;;0.40;;
41309;SDS011;27057;51.438;-0.010;2023-02-17T09:37:39;1.13;;;0.50;;
41309;SDS011;27057;51.438;-0.010;2023-02-17T09:40:07;1.35;;;0.20;;
41309;SDS011;27057;51.438;-0.010;2023-02-17T09:42:41;2.92;;;0.50;;
41309;SDS011;27057;51.438;-0.010;2023-02-17T09:45:10;0.80;;;0.70;;
41309;SDS011;27057;51.438;-0.010;2023-02-17T09:47:49;1.38;;;0.70;;
41309;SDS011;27057;51.438;-0.010;2023-02-17T09:50:22;2.15;;;0.50;;
41309;SDS011;27057;51.438;-0.010;2023-02-17T09:53:02;4.20;;;0.75;;
41309;SDS011;27057;51.438;-0.010;2023-02-17T09:55:40;3.40;;;0.55;;
41309;SDS011;27057;51.438;-0.010;2023-02-17T09:58:13;0.52;;;0.52;;
41309;SDS011;27057;51.438;-0.010;2023-02-17T10:00:50;1.58;;;0.47;;
41309;SDS011;27057;51.438;-0.010;2023-02-17T10:03:33;0.55;;;0.40;;
41309;SDS011;27057;51.438;-0.010;2023-02-17T10:08:47;0.85;;;0.40;;
41309;SDS011;27057;51.438;-0.010;2023-02-17T10:11:40;2.50;;;0.82;;
41309;SDS011;27057;51.438;-0.010;2023-02-17T10:14:24;0.40;;;0.40;;
41309;SDS011;27057;51.438;-0.010;2023-02-17T10:17:07;3.22;;;0.85;;
41309;SDS011;27057;51.438;-0.010;2023-02-17T10:22:43;7.60;;;0.52;;
41309;SDS011;27057;51.438;-0.010;2023-02-17T10:25:16;0.57;;;0.57;;
41309;SDS011;27057;51.438;-0.010;2023-02-17T10:27:54;1.88;;;0.95;;
41309;SDS011;27057;51.438;-0.010;2023-02-17T10:30:37;0.43;;;0.43;;
41309;SDS011;27057;51.438;-0.010;2023-02-17T10:38:51;3.25;;;1.15;;
41309;SDS011;27057;51.438;-0.010;2023-02-17T10:41:33;1.00;;;0.80;;
41309;SDS011;27057;51.438;-0.010;2023-02-17T10:44:15;1.58;;;1.08;;
41309;SDS011;27057;51.438;-0.010;2023-02-17T10:46:46;1.65;;;0.85;;
41309;SDS011;27057;51.438;-0.010;2023-02-17T10:49:17;0.60;;;0.50;;
41309;SDS011;27057;51.438;-0.010;2023-02-17T10:55:00;2.92;;;0.70;;
41309;SDS011;27057;51.438;-0.010;2023-02-17T10:58:19;2.78;;;0.50;;
41309;SDS011;27057;51.438;-0.010;2023-02-17T11:00:53;0.80;;;0.55;;
41309;SDS011;27057;51.438;-0.010;2023-02-17T11:03:24;1.73;;;0.90;;
41309;SDS011;27057;51.438;-0.010;2023-02-17T11:06:05;0.73;;;0.70;;
41309;SDS011;27057;51.438;-0.010;2023-02-17T11:08:47;1.15;;;0.32;;
41309;SDS011;27057;51.438;-0.010;2023-02-17T11:11:18;0.80;;;0.60;;
41309;SDS011;27057;51.438;-0.010;2023-02-17T11:19:23;0.98;;;0.45;;
41309;SDS011;27057;51.438;-0.010;2023-02-17T11:22:18;2.67;;;0.60;;
41309;SDS011;27057;51.438;-0.010;2023-02-17T11:25:29;13.48;;;0.88;;
41309;SDS011;27057;51.438;-0.010;2023-02-17T11:28:00;3.65;;;0.85;;
41309;SDS011;27057;51.438;-0.010;2023-02-17T11:30:30;0.50;;;0.50;;
41309;SDS011;27057;51.438;-0.010;2023-02-17T11:33:09;0.43;;;0.43;;
41309;SDS011;27057;51.438;-0.010;2023-02-17T11:38:22;1.45;;;0.75;;
41309;SDS011;27057;51.438;-0.010;2023-02-17T11:41:10;0.40;;;0.40;;
41309;SDS011;27057;51.438;-0.010;2023-02-17T11:43:49;2.90;;;0.95;;
41309;SDS011;27057;51.438;-0.010;2023-02-17T11:46:43;4.00;;;1.35;;
41309;SDS011;27057;51.438;-0.010;2023-02-17T11:54:45;0.85;;;0.63;;
41309;SDS011;27057;51.438;-0.010;2023-02-17T12:00:21;3.20;;;0.88;;
41309;SDS011;27057;51.438;-0.010;2023-02-17T12:02:52;1.30;;;0.60;;
41309;SDS011;27057;51.438;-0.010;2023-02-17T12:06:01;4.35;;;0.75;;
41309;SDS011;27057;51.438;-0.010;2023-02-17T12:11:13;4.45;;;0.60;;
41309;SDS011;27057;51.438;-0.010;2023-02-17T12:13:59;11.35;;;0.70;;
41309;SDS011;27057;51.438;-0.010;2023-02-17T12:30:58;1.40;;;0.73;;
41309;SDS011;27057;51.438;-0.010;2023-02-17T12:36:31;1.25;;;0.90;;
41309;SDS011;27057;51.438;-0.010;2023-02-17T12:39:02;1.27;;;0.60;;
41309;SDS011;27057;51.438;-0.010;2023-02-17T12:41:50;9.37;;;1.10;;
41309;SDS011;27057;51.438;-0.010;2023-02-17T12:44:27;1.40;;;0.63;;
41309;SDS011;27057;51.438;-0.010;2023-02-17T12:47:07;8.95;;;1.92;;
41309;SDS011;27057;51.438;-0.010;2023-02-17T12:50:00;6.15;;;0.88;;
41309;SDS011;27057;51.438;-0.010;2023-02-17T12:52:47;1.60;;;0.70;;
41309;SDS011;27057;51.438;-0.010;2023-02-17T12:55:26;1.07;;;0.57;;
41309;SDS011;27057;51.438;-0.010;2023-02-17T12:58:04;1.58;;;0.77;;
41309;SDS011;27057;51.438;-0.010;2023-02-17T13:00:45;3.65;;;0.80;;
41309;SDS011;27057;51.438;-0.010;2023-02-17T13:03:32;1.02;;;0.93;;
41309;SDS011;27057;51.438;-0.010;2023-02-17T13:06:24;3.95;;;1.00;;
41309;SDS011;27057;51.438;-0.010;2023-02-17T13:08:52;0.93;;;0.60;;
41309;SDS011;27057;51.438;-0.010;2023-02-17T13:11:30;2.58;;;1.02;;
41309;SDS011;27057;51.438;-0.010;2023-02-17T13:14:10;3.70;;;1.20;;
41309;SDS011;27057;51.438;-0.010;2023-02-17T13:16:42;1.17;;;0.82;;
41309;SDS011;27057;51.438;-0.010;2023-02-17T13:19:11;10.95;;;1.23;;
41309;SDS011;27057;51.438;-0.010;2023-02-17T13:21:53;0.77;;;0.63;;
41309;SDS011;27057;51.438;-0.010;2023-02-17T13:24:33;5.03;;;1.05;;
41309;SDS011;27057;51.438;-0.010;2023-02-17T13:27:08;4.25;;;0.80;;
41309;SDS011;27057;51.438;-0.010;2023-02-17T13:29:36;3.05;;;0.85;;
41309;SDS011;27057;51.438;-0.010;2023-02-17T13:32:05;0.90;;;0.60;;
41309;SDS011;27057;51.438;-0.010;2023-02-17T13:34:41;6.00;;;1.20;;
41309;SDS011;27057;51.438;-0.010;2023-02-17T13:37:17;1.10;;;0.80;;
41309;SDS011;27057;51.438;-0.010;2023-02-17T13:40:07;2.80;;;0.93;;
41309;SDS011;27057;51.438;-0.010;2023-02-17T13:42:48;9.35;;;1.00;;
41309;SDS011;27057;51.438;-0.010;2023-02-17T13:47:57;1.03;;;0.50;;
41309;SDS011;27057;51.438;-0.010;2023-02-17T13:50:28;2.17;;;0.60;;
41309;SDS011;27057;51.438;-0.010;2023-02-17T13:53:23;3.50;;;0.90;;
41309;SDS011;27057;51.438;-0.010;2023-02-17T13:55:52;4.63;;;1.50;;
41309;SDS011;27057;51.438;-0.010;2023-02-17T13:58:22;1.35;;;0.77;;
41309;SDS011;27057;51.438;-0.010;2023-02-17T14:00:51;1.58;;;0.73;;
41309;SDS011;27057;51.438;-0.010;2023-02-17T14:03:24;1.23;;;0.65;;
41309;SDS011;27057;51.438;-0.010;2023-02-17T14:05:57;3.92;;;1.10;;
41309;SDS011;27057;51.438;-0.010;2023-02-17T14:08:33;0.95;;;0.65;;
41309;SDS011;27057;51.438;-0.010;2023-02-17T14:11:08;1.05;;;0.52;;
41309;SDS011;27057;51.438;-0.010;2023-02-17T14:13:36;9.60;;;0.90;;
41309;SDS011;27057;51.438;-0.010;2023-02-17T14:16:06;1.58;;;0.85;;
41309;SDS011;27057;51.438;-0.010;2023-02-17T14:18:59;4.60;;;1.35;;
41309;SDS011;27057;51.438;-0.010;2023-02-17T14:21:31;3.85;;;1.55;;
41309;SDS011;27057;51.438;-0.010;2023-02-17T14:24:00;5.50;;;1.48;;
41309;SDS011;27057;51.438;-0.010;2023-02-17T14:26:35;4.60;;;0.98;;
41309;SDS011;27057;51.438;-0.010;2023-02-17T14:29:16;3.20;;;1.90;;
41309;SDS011;27057;51.438;-0.010;2023-02-17T14:31:44;4.45;;;1.77;;
41309;SDS011;27057;51.438;-0.010;2023-02-17T14:34:24;1.95;;;1.27;;
41309;SDS011;27057;51.438;-0.010;2023-02-17T14:36:53;1.83;;;0.60;;
41309;SDS011;27057;51.438;-0.010;2023-02-17T14:39:21;5.75;;;1.45;;
41309;SDS011;27057;51.438;-0.010;2023-02-17T14:41:49;4.38;;;1.40;;
41309;SDS011;27057;51.438;-0.010;2023-02-17T14:44:16;2.15;;;1.25;;
41309;SDS011;27057;51.438;-0.010;2023-02-17T14:46:43;2.10;;;0.85;;
41309;SDS011;27057;51.438;-0.010;2023-02-17T14:49:11;10.77;;;1.45;;
41309;SDS011;27057;51.438;-0.010;2023-02-17T14:51:38;1.25;;;0.68;;
41309;SDS011;27057;51.438;-0.010;2023-02-17T14:54:13;3.00;;;1.30;;
41309;SDS011;27057;51.438;-0.010;2023-02-17T14:57:05;2.45;;;1.10;;
41309;SDS011;27057;51.438;-0.010;2023-02-17T14:59:34;4.30;;;1.00;;
41309;SDS011;27057;51.438;-0.010;2023-02-17T15:02:01;2.83;;;1.05;;
41309;SDS011;27057;51.438;-0.010;2023-02-17T15:04:29;2.47;;;0.88;;
41309;SDS011;27057;51.438;-0.010;2023-02-17T15:06:57;0.77;;;0.50;;
41309;SDS011;27057;51.438;-0.010;2023-02-17T15:09:28;1.85;;;0.85;;
41309;SDS011;27057;51.438;-0.010;2023-02-17T15:11:56;1.75;;;1.10;;
41309;SDS011;27057;51.438;-0.010;2023-02-17T15:14:24;8.52;;;2.53;;
41309;SDS011;27057;51.438;-0.010;2023-02-17T15:16:52;3.70;;;1.00;;
41309;SDS011;27057;51.438;-0.010;2023-02-17T15:19:19;3.95;;;1.58;;
41309;SDS011;27057;51.438;-0.010;2023-02-17T15:21:48;5.18;;;1.50;;
41309;SDS011;27057;51.438;-0.010;2023-02-17T15:24:24;7.20;;;1.13;;
41309;SDS011;27057;51.438;-0.010;2023-02-17T15:26:57;6.32;;;1.48;;
41309;SDS011;27057;51.438;-0.010;2023-02-17T15:29:25;7.65;;;1.50;;
41309;SDS011;27057;51.438;-0.010;2023-02-17T15:31:55;2.08;;;0.90;;
41309;SDS011;27057;51.438;-0.010;2023-02-17T15:34:30;5.72;;;1.48;;
41309;SDS011;27057;51.438;-0.010;2023-02-17T15:36:59;2.17;;;1.17;;
41309;SDS011;27057;51.438;-0.010;2023-02-17T15:39:27;2.08;;;0.85;;
41309;SDS011;27057;51.438;-0.010;2023-02-17T15:41:55;2.60;;;1.02;;
41309;SDS011;27057;51.438;-0.010;2023-02-17T15:44:34;4.90;;;1.10;;
41309;SDS011;27057;51.438;-0.010;2023-02-17T15:47:09;8.30;;;1.75;;
41309;SDS011;27057;51.438;-0.010;2023-02-17T15:49:45;2.35;;;0.98;;
41309;SDS011;27057;51.438;-0.010;2023-02-17T15:52:13;8.20;;;2.13;;
41309;SDS011;27057;51.438;-0.010;2023-02-17T15:54:41;2.85;;;1.02;;
41309;SDS011;27057;51.438;-0.010;2023-02-17T15:57:22;2.85;;;1.05;;
41309;SDS011;27057;51.438;-0.010;2023-02-17T15:59:50;6.03;;;1.35;;
41309;SDS011;27057;51.438;-0.010;2023-02-17T16:02:21;5.93;;;1.25;;
41309;SDS011;27057;51.438;-0.010;2023-02-17T16:04:50;10.02;;;1.58;;
41309;SDS011;27057;51.438;-0.010;2023-02-17T16:07:17;4.75;;;1.17;;
41309;SDS011;27057;51.438;-0.010;2023-02-17T16:09:44;2.03;;;0.80;;
41309;SDS011;27057;51.438;-0.010;2023-02-17T16:12:16;5.78;;;1.30;;
41309;SDS011;27057;51.438;-0.010;2023-02-17T16:14:53;2.75;;;1.17;;
41309;SDS011;27057;51.438;-0.010;2023-02-17T16:17:24;4.20;;;1.30;;
41309;SDS011;27057;51.438;-0.010;2023-02-17T16:19:52;4.57;;;1.20;;
41309;SDS011;27057;51.438;-0.010;2023-02-17T16:22:20;5.70;;;1.50;;
41309;SDS011;27057;51.438;-0.010;2023-02-17T16:24:47;3.50;;;0.85;;
41309;SDS011;27057;51.438;-0.010;2023-02-17T16:27:15;2.95;;;1.33;;